sensor_id;sensor_type;location;lat;lon;timestamp;P1;durP1;ratioP1;P2;durP2;ratioP2
9958;SDS011;5019;48.012;7.812;2022-09-21T00:01:58;2.33;;;1.80;;
9958;SDS011;5019;48.012;7.812;2022-09-21T00:04:24;2.07;;;1.60;;
9958;SDS011;5019;48.012;7.812;2022-09-21T00:06:50;1.90;;;1.50;;
9958;SDS011;5019;48.012;7.812;2022-09-21T00:09:16;1.50;;;1.40;;
9958;SDS011;5019;48.012;7.812;2022-09-21T00:11:42;2.90;;;1.63;;
9958;SDS011;5019;48.012;7.812;2022-09-21T00:14:10;2.13;;;1.20;;
9958;SDS011;5019;48.012;7.812;2022-09-21T00:16:37;1.70;;;1.60;;
9958;SDS011;5019;48.012;7.812;2022-09-21T00:19:03;2.40;;;1.70;;
9958;SDS011;5019;48.012;7.812;2022-09-21T00:21:30;1.47;;;1.37;;
9958;SDS011;5019;48.012;7.812;2022-09-21T00:23:57;1.90;;;1.80;;
9958;SDS011;5019;48.012;7.812;2022-09-21T00:26:24;3.30;;;1.80;;
9958;SDS011;5019;48.012;7.812;2022-09-21T00:28:51;1.97;;;1.87;;
9958;SDS011;5019;48.012;7.812;2022-09-21T00:31:18;5.60;;;1.43;;
9958;SDS011;5019;48.012;7.812;2022-09-21T00:33:44;1.83;;;1.57;;
9958;SDS011;5019;48.012;7.812;2022-09-21T00:36:14;1.73;;;1.20;;
9958;SDS011;5019;48.012;7.812;2022-09-21T00:38:41;1.60;;;1.50;;
9958;SDS011;5019;48.012;7.812;2022-09-21T00:41:08;3.13;;;1.80;;
9958;SDS011;5019;48.012;7.812;2022-09-21T00:43:35;3.17;;;1.70;;
9958;SDS011;5019;48.012;7.812;2022-09-21T00:46:03;1.50;;;1.40;;
9958;SDS011;5019;48.012;7.812;2022-09-21T00:48:30;1.83;;;1.73;;
9958;SDS011;5019;48.012;7.812;2022-09-21T00:50:58;1.97;;;1.20;;
9958;SDS011;5019;48.012;7.812;2022-09-21T00:53:25;2.40;;;1.60;;
9958;SDS011;5019;48.012;7.812;2022-09-21T00:55:53;3.40;;;1.67;;
9958;SDS011;5019;48.012;7.812;2022-09-21T00:58:22;1.67;;;1.47;;
9958;SDS011;5019;48.012;7.812;2022-09-21T01:00:49;3.23;;;2.10;;
9958;SDS011;5019;48.012;7.812;2022-09-21T01:03:16;1.50;;;1.40;;
9958;SDS011;5019;48.012;7.812;2022-09-21T01:05:42;1.43;;;1.30;;
9958;SDS011;5019;48.012;7.812;2022-09-21T01:08:08;2.97;;;1.60;;
9958;SDS011;5019;48.012;7.812;2022-09-21T01:13:32;2.03;;;1.60;;
9958;SDS011;5019;48.012;7.812;2022-09-21T01:18:35;1.70;;;1.60;;
9958;SDS011;5019;48.012;7.812;2022-09-21T01:23:51;1.80;;;1.67;;
9958;SDS011;5019;48.012;7.812;2022-09-21T01:29:09;1.80;;;1.60;;
9958;SDS011;5019;48.012;7.812;2022-09-21T01:31:38;3.23;;;1.80;;
9958;SDS011;5019;48.012;7.812;2022-09-21T01:34:10;1.47;;;1.20;;
9958;SDS011;5019;48.012;7.812;2022-09-21T01:36:40;2.83;;;1.60;;
9958;SDS011;5019;48.012;7.812;2022-09-21T01:39:08;3.27;;;1.90;;
9958;SDS011;5019;48.012;7.812;2022-09-21T01:41:36;1.10;;;1.10;;
9958;SDS011;5019;48.012;7.812;2022-09-21T01:44:05;1.70;;;1.60;;
9958;SDS011;5019;48.012;7.812;2022-09-21T01:46:32;1.80;;;1.70;;
9958;SDS011;5019;48.012;7.812;2022-09-21T01:49:01;3.37;;;1.70;;
9958;SDS011;5019;48.012;7.812;2022-09-21T01:51:28;2.23;;;1.80;;
9958;SDS011;5019;48.012;7.812;2022-09-21T01:54:04;3.43;;;2.47;;
9958;SDS011;5019;48.012;7.812;2022-09-21T02:01:41;2.13;;;1.93;;
9958;SDS011;5019;48.012;7.812;2022-09-21T02:04:09;3.43;;;2.30;;
9958;SDS011;5019;48.012;7.812;2022-09-21T02:06:37;1.80;;;1.70;;
9958;SDS011;5019;48.012;7.812;2022-09-21T02:09:04;5.40;;;2.43;;
9958;SDS011;5019;48.012;7.812;2022-09-21T02:11:30;1.80;;;1.70;;
9958;SDS011;5019;48.012;7.812;2022-09-21T02:13:56;2.13;;;2.00;;
9958;SDS011;5019;48.012;7.812;2022-09-21T02:26:21;1.33;;;1.23;;
9958;SDS011;5019;48.012;7.812;2022-09-21T02:28:52;1.50;;;1.37;;
9958;SDS011;5019;48.012;7.812;2022-09-21T02:33:53;1.63;;;1.53;;
9958;SDS011;5019;48.012;7.812;2022-09-21T02:36:25;4.73;;;1.23;;
9958;SDS011;5019;48.012;7.812;2022-09-21T02:39:05;1.47;;;1.27;;
9958;SDS011;5019;48.012;7.812;2022-09-21T02:46:45;1.53;;;1.37;;
9958;SDS011;5019;48.012;7.812;2022-09-21T02:49:15;2.37;;;1.77;;
9958;SDS011;5019;48.012;7.812;2022-09-21T02:51:44;1.40;;;1.30;;
9958;SDS011;5019;48.012;7.812;2022-09-21T02:54:12;1.07;;;1.07;;
9958;SDS011;5019;48.012;7.812;2022-09-21T02:56:40;1.23;;;1.13;;
9958;SDS011;5019;48.012;7.812;2022-09-21T02:59:07;1.40;;;1.27;;
9958;SDS011;5019;48.012;7.812;2022-09-21T03:01:33;1.37;;;1.27;;
9958;SDS011;5019;48.012;7.812;2022-09-21T03:03:59;1.00;;;1.00;;
9958;SDS011;5019;48.012;7.812;2022-09-21T03:06:26;2.70;;;2.47;;
9958;SDS011;5019;48.012;7.812;2022-09-21T03:08:52;1.43;;;1.33;;
9958;SDS011;5019;48.012;7.812;2022-09-21T03:11:18;1.13;;;1.13;;
9958;SDS011;5019;48.012;7.812;2022-09-21T03:13:45;1.40;;;1.30;;
9958;SDS011;5019;48.012;7.812;2022-09-21T03:16:11;1.67;;;1.57;;
9958;SDS011;5019;48.012;7.812;2022-09-21T03:18:37;1.70;;;1.33;;
9958;SDS011;5019;48.012;7.812;2022-09-21T03:21:04;2.40;;;1.60;;
9958;SDS011;5019;48.012;7.812;2022-09-21T03:23:31;2.47;;;1.67;;
9958;SDS011;5019;48.012;7.812;2022-09-21T03:25:57;1.27;;;1.17;;
9958;SDS011;5019;48.012;7.812;2022-09-21T03:28:23;1.27;;;1.17;;
9958;SDS011;5019;48.012;7.812;2022-09-21T03:30:49;1.27;;;1.10;;
9958;SDS011;5019;48.012;7.812;2022-09-21T03:33:16;2.27;;;1.63;;
9958;SDS011;5019;48.012;7.812;2022-09-21T03:35:43;1.27;;;1.10;;
9958;SDS011;5019;48.012;7.812;2022-09-21T03:38:09;1.60;;;1.50;;
9958;SDS011;5019;48.012;7.812;2022-09-21T03:40:35;1.17;;;1.17;;
9958;SDS011;5019;48.012;7.812;2022-09-21T03:43:01;3.13;;;1.63;;
9958;SDS011;5019;48.012;7.812;2022-09-21T03:45:27;1.53;;;1.40;;
9958;SDS011;5019;48.012;7.812;2022-09-21T03:47:54;1.40;;;1.30;;
9958;SDS011;5019;48.012;7.812;2022-09-21T03:50:22;1.70;;;1.60;;
9958;SDS011;5019;48.012;7.812;2022-09-21T03:52:48;1.60;;;1.50;;
9958;SDS011;5019;48.012;7.812;2022-09-21T03:55:14;1.67;;;1.17;;
9958;SDS011;5019;48.012;7.812;2022-09-21T03:57:40;1.27;;;1.13;;
9958;SDS011;5019;48.012;7.812;2022-09-21T04:00:07;1.83;;;1.73;;
9958;SDS011;5019;48.012;7.812;2022-09-21T04:02:34;2.80;;;1.50;;
9958;SDS011;5019;48.012;7.812;2022-09-21T04:05:00;3.20;;;1.70;;
9958;SDS011;5019;48.012;7.812;2022-09-21T04:07:29;2.67;;;2.47;;
9958;SDS011;5019;48.012;7.812;2022-09-21T04:09:57;1.50;;;1.40;;
9958;SDS011;5019;48.012;7.812;2022-09-21T04:12:23;4.43;;;1.70;;
9958;SDS011;5019;48.012;7.812;2022-09-21T04:14:49;3.10;;;1.40;;
9958;SDS011;5019;48.012;7.812;2022-09-21T04:17:15;2.53;;;1.80;;
9958;SDS011;5019;48.012;7.812;2022-09-21T04:19:42;2.03;;;1.43;;
9958;SDS011;5019;48.012;7.812;2022-09-21T04:22:09;1.30;;;1.23;;
9958;SDS011;5019;48.012;7.812;2022-09-21T04:24:36;1.13;;;1.00;;
9958;SDS011;5019;48.012;7.812;2022-09-21T04:27:04;1.53;;;0.93;;
9958;SDS011;5019;48.012;7.812;2022-09-21T04:29:30;1.03;;;0.93;;
9958;SDS011;5019;48.012;7.812;2022-09-21T04:31:56;1.40;;;1.30;;
9958;SDS011;5019;48.012;7.812;2022-09-21T04:34:22;1.53;;;1.43;;
9958;SDS011;5019;48.012;7.812;2022-09-21T04:36:48;0.87;;;0.87;;
9958;SDS011;5019;48.012;7.812;2022-09-21T04:39:14;1.30;;;1.20;;
9958;SDS011;5019;48.012;7.812;2022-09-21T04:41:40;1.67;;;1.10;;
9958;SDS011;5019;48.012;7.812;2022-09-21T04:44:06;1.33;;;1.23;;
9958;SDS011;5019;48.012;7.812;2022-09-21T04:46:32;3.60;;;1.53;;
9958;SDS011;5019;48.012;7.812;2022-09-21T04:48:58;0.97;;;0.97;;
9958;SDS011;5019;48.012;7.812;2022-09-21T04:51:24;1.00;;;1.00;;
9958;SDS011;5019;48.012;7.812;2022-09-21T04:53:50;1.60;;;1.10;;
9958;SDS011;5019;48.012;7.812;2022-09-21T04:56:16;0.70;;;0.70;;
9958;SDS011;5019;48.012;7.812;2022-09-21T04:58:43;1.43;;;1.33;;
9958;SDS011;5019;48.012;7.812;2022-09-21T05:01:09;1.37;;;1.37;;
9958;SDS011;5019;48.012;7.812;2022-09-21T05:03:35;1.20;;;1.20;;
9958;SDS011;5019;48.012;7.812;2022-09-21T05:06:02;1.03;;;0.90;;
9958;SDS011;5019;48.012;7.812;2022-09-21T05:08:29;1.53;;;1.27;;
9958;SDS011;5019;48.012;7.812;2022-09-21T05:11:14;1.23;;;1.13;;
9958;SDS011;5019;48.012;7.812;2022-09-21T05:13:40;1.67;;;1.57;;
9958;SDS011;5019;48.012;7.812;2022-09-21T05:16:07;1.70;;;1.60;;
9958;SDS011;5019;48.012;7.812;2022-09-21T05:18:33;1.20;;;1.10;;
9958;SDS011;5019;48.012;7.812;2022-09-21T05:21:00;1.00;;;1.00;;
9958;SDS011;5019;48.012;7.812;2022-09-21T05:23:26;1.67;;;1.40;;
9958;SDS011;5019;48.012;7.812;2022-09-21T05:25:54;1.37;;;1.27;;
9958;SDS011;5019;48.012;7.812;2022-09-21T05:28:20;1.57;;;1.43;;
9958;SDS011;5019;48.012;7.812;2022-09-21T05:30:47;1.97;;;1.43;;
9958;SDS011;5019;48.012;7.812;2022-09-21T05:33:18;1.30;;;1.20;;
9958;SDS011;5019;48.012;7.812;2022-09-21T05:38:26;3.10;;;2.90;;
9958;SDS011;5019;48.012;7.812;2022-09-21T05:40:52;2.83;;;2.40;;
9958;SDS011;5019;48.012;7.812;2022-09-21T05:43:18;2.30;;;1.67;;
9958;SDS011;5019;48.012;7.812;2022-09-21T05:45:45;1.87;;;1.70;;
9958;SDS011;5019;48.012;7.812;2022-09-21T05:50:40;1.57;;;1.27;;
9958;SDS011;5019;48.012;7.812;2022-09-21T05:53:12;0.83;;;0.83;;
9958;SDS011;5019;48.012;7.812;2022-09-21T06:00:38;1.40;;;1.30;;
9958;SDS011;5019;48.012;7.812;2022-09-21T06:05:42;1.93;;;1.60;;
9958;SDS011;5019;48.012;7.812;2022-09-21T06:08:08;0.90;;;0.90;;
9958;SDS011;5019;48.012;7.812;2022-09-21T06:10:34;1.30;;;1.20;;
9958;SDS011;5019;48.012;7.812;2022-09-21T06:13:00;2.03;;;1.60;;
9958;SDS011;5019;48.012;7.812;2022-09-21T06:15:26;1.57;;;1.10;;
9958;SDS011;5019;48.012;7.812;2022-09-21T06:17:52;1.53;;;1.43;;
9958;SDS011;5019;48.012;7.812;2022-09-21T06:20:18;2.00;;;1.40;;
9958;SDS011;5019;48.012;7.812;2022-09-21T06:22:44;1.90;;;1.80;;
9958;SDS011;5019;48.012;7.812;2022-09-21T06:25:10;1.30;;;1.20;;
9958;SDS011;5019;48.012;7.812;2022-09-21T06:27:36;1.47;;;1.07;;
9958;SDS011;5019;48.012;7.812;2022-09-21T06:30:03;2.97;;;1.63;;
9958;SDS011;5019;48.012;7.812;2022-09-21T06:32:29;0.90;;;0.90;;
9958;SDS011;5019;48.012;7.812;2022-09-21T06:34:55;1.53;;;1.43;;
9958;SDS011;5019;48.012;7.812;2022-09-21T06:37:21;1.60;;;1.30;;
9958;SDS011;5019;48.012;7.812;2022-09-21T06:39:47;2.80;;;1.83;;
9958;SDS011;5019;48.012;7.812;2022-09-21T06:42:13;2.07;;;1.90;;
9958;SDS011;5019;48.012;7.812;2022-09-21T06:44:39;1.20;;;1.10;;
9958;SDS011;5019;48.012;7.812;2022-09-21T06:47:05;1.53;;;1.40;;
9958;SDS011;5019;48.012;7.812;2022-09-21T06:49:31;1.37;;;1.10;;
9958;SDS011;5019;48.012;7.812;2022-09-21T06:51:57;2.80;;;1.60;;
9958;SDS011;5019;48.012;7.812;2022-09-21T06:54:24;1.37;;;1.10;;
9958;SDS011;5019;48.012;7.812;2022-09-21T06:56:50;1.23;;;1.13;;
9958;SDS011;5019;48.012;7.812;2022-09-21T06:59:16;3.27;;;1.77;;
9958;SDS011;5019;48.012;7.812;2022-09-21T07:01:42;1.77;;;1.00;;
9958;SDS011;5019;48.012;7.812;2022-09-21T07:04:08;2.80;;;1.00;;
9958;SDS011;5019;48.012;7.812;2022-09-21T07:06:34;2.30;;;1.53;;
9958;SDS011;5019;48.012;7.812;2022-09-21T07:09:00;1.10;;;1.10;;
9958;SDS011;5019;48.012;7.812;2022-09-21T07:11:27;1.30;;;1.20;;
9958;SDS011;5019;48.012;7.812;2022-09-21T07:13:53;3.40;;;2.20;;
9958;SDS011;5019;48.012;7.812;2022-09-21T07:16:20;1.80;;;1.00;;
9958;SDS011;5019;48.012;7.812;2022-09-21T07:18:47;2.37;;;2.17;;
9958;SDS011;5019;48.012;7.812;2022-09-21T07:21:13;1.67;;;1.57;;
9958;SDS011;5019;48.012;7.812;2022-09-21T07:23:39;1.77;;;1.10;;
9958;SDS011;5019;48.012;7.812;2022-09-21T07:26:06;1.50;;;1.40;;
9958;SDS011;5019;48.012;7.812;2022-09-21T07:28:33;2.13;;;1.70;;
9958;SDS011;5019;48.012;7.812;2022-09-21T07:31:04;3.50;;;1.50;;
9958;SDS011;5019;48.012;7.812;2022-09-21T07:33:30;2.13;;;2.03;;
9958;SDS011;5019;48.012;7.812;2022-09-21T07:35:57;2.30;;;2.10;;
9958;SDS011;5019;48.012;7.812;2022-09-21T07:38:24;2.20;;;1.77;;
9958;SDS011;5019;48.012;7.812;2022-09-21T07:40:51;2.90;;;1.23;;
9958;SDS011;5019;48.012;7.812;2022-09-21T07:43:17;1.40;;;1.30;;
9958;SDS011;5019;48.012;7.812;2022-09-21T07:45:50;2.13;;;1.70;;
9958;SDS011;5019;48.012;7.812;2022-09-21T07:48:17;2.57;;;1.80;;
9958;SDS011;5019;48.012;7.812;2022-09-21T07:50:42;2.30;;;1.93;;
9958;SDS011;5019;48.012;7.812;2022-09-21T07:53:08;1.80;;;1.30;;
9958;SDS011;5019;48.012;7.812;2022-09-21T07:55:34;2.30;;;2.10;;
9958;SDS011;5019;48.012;7.812;2022-09-21T07:58:02;2.13;;;1.30;;
9958;SDS011;5019;48.012;7.812;2022-09-21T08:00:46;2.13;;;1.47;;
9958;SDS011;5019;48.012;7.812;2022-09-21T08:03:12;5.77;;;2.07;;
9958;SDS011;5019;48.012;7.812;2022-09-21T08:05:38;1.70;;;1.60;;
9958;SDS011;5019;48.012;7.812;2022-09-21T08:08:04;1.53;;;1.30;;
9958;SDS011;5019;48.012;7.812;2022-09-21T08:10:30;3.27;;;2.50;;
9958;SDS011;5019;48.012;7.812;2022-09-21T08:12:56;2.20;;;2.00;;
9958;SDS011;5019;48.012;7.812;2022-09-21T08:15:22;4.10;;;1.90;;
9958;SDS011;5019;48.012;7.812;2022-09-21T08:17:49;3.40;;;2.20;;
9958;SDS011;5019;48.012;7.812;2022-09-21T08:20:16;2.20;;;1.97;;
9958;SDS011;5019;48.012;7.812;2022-09-21T08:22:42;1.77;;;1.67;;
9958;SDS011;5019;48.012;7.812;2022-09-21T08:25:08;4.60;;;1.93;;
9958;SDS011;5019;48.012;7.812;2022-09-21T08:27:35;1.87;;;1.23;;
9958;SDS011;5019;48.012;7.812;2022-09-21T08:30:02;3.03;;;1.73;;
9958;SDS011;5019;48.012;7.812;2022-09-21T08:32:28;2.97;;;1.87;;
9958;SDS011;5019;48.012;7.812;2022-09-21T08:34:55;1.60;;;1.20;;
9958;SDS011;5019;48.012;7.812;2022-09-21T08:37:21;2.27;;;1.43;;
9958;SDS011;5019;48.012;7.812;2022-09-21T08:39:47;1.93;;;1.60;;
9958;SDS011;5019;48.012;7.812;2022-09-21T08:42:29;2.67;;;1.63;;
9958;SDS011;5019;48.012;7.812;2022-09-21T08:45:10;1.90;;;1.70;;
9958;SDS011;5019;48.012;7.812;2022-09-21T08:47:44;5.27;;;2.43;;
9958;SDS011;5019;48.012;7.812;2022-09-21T08:50:22;5.03;;;2.40;;
9958;SDS011;5019;48.012;7.812;2022-09-21T08:52:51;8.43;;;2.00;;
9958;SDS011;5019;48.012;7.812;2022-09-21T08:55:19;3.33;;;1.87;;
9958;SDS011;5019;48.012;7.812;2022-09-21T08:57:46;3.60;;;1.80;;
9958;SDS011;5019;48.012;7.812;2022-09-21T09:00:13;3.00;;;1.90;;
9958;SDS011;5019;48.012;7.812;2022-09-21T09:05:38;1.03;;;1.00;;
9958;SDS011;5019;48.012;7.812;2022-09-21T09:10:44;1.03;;;1.03;;
9958;SDS011;5019;48.012;7.812;2022-09-21T09:13:27;1.77;;;1.67;;
9958;SDS011;5019;48.012;7.812;2022-09-21T09:21:08;1.53;;;1.43;;
9958;SDS011;5019;48.012;7.812;2022-09-21T09:26:05;1.23;;;1.23;;
9958;SDS011;5019;48.012;7.812;2022-09-21T09:28:35;1.27;;;1.00;;
9958;SDS011;5019;48.012;7.812;2022-09-21T09:31:09;1.00;;;1.00;;
9958;SDS011;5019;48.012;7.812;2022-09-21T09:36:14;2.37;;;1.47;;
9958;SDS011;5019;48.012;7.812;2022-09-21T09:44:13;1.57;;;1.30;;
9958;SDS011;5019;48.012;7.812;2022-09-21T09:51:39;1.20;;;1.07;;
9958;SDS011;5019;48.012;7.812;2022-09-21T09:54:07;1.50;;;1.40;;
9958;SDS011;5019;48.012;7.812;2022-09-21T09:56:37;2.30;;;1.23;;
9958;SDS011;5019;48.012;7.812;2022-09-21T09:59:04;0.90;;;0.80;;
9958;SDS011;5019;48.012;7.812;2022-09-21T10:01:35;1.30;;;1.20;;
9958;SDS011;5019;48.012;7.812;2022-09-21T10:04:06;1.50;;;1.40;;
9958;SDS011;5019;48.012;7.812;2022-09-21T10:06:33;2.13;;;1.30;;
9958;SDS011;5019;48.012;7.812;2022-09-21T10:08:59;1.63;;;1.53;;
9958;SDS011;5019;48.012;7.812;2022-09-21T10:11:33;1.97;;;1.20;;
9958;SDS011;5019;48.012;7.812;2022-09-21T10:14:08;1.03;;;0.93;;
9958;SDS011;5019;48.012;7.812;2022-09-21T10:16:39;2.80;;;1.47;;
9958;SDS011;5019;48.012;7.812;2022-09-21T10:19:10;1.30;;;1.20;;
9958;SDS011;5019;48.012;7.812;2022-09-21T10:21:40;1.67;;;1.20;;
9958;SDS011;5019;48.012;7.812;2022-09-21T10:26:53;0.90;;;0.90;;
9958;SDS011;5019;48.012;7.812;2022-09-21T10:34:40;2.73;;;1.07;;
9958;SDS011;5019;48.012;7.812;2022-09-21T10:37:24;0.93;;;0.93;;
9958;SDS011;5019;48.012;7.812;2022-09-21T10:39:51;1.70;;;0.90;;
9958;SDS011;5019;48.012;7.812;2022-09-21T10:42:17;1.43;;;0.97;;
9958;SDS011;5019;48.012;7.812;2022-09-21T10:44:48;0.90;;;0.90;;
9958;SDS011;5019;48.012;7.812;2022-09-21T10:47:22;0.73;;;0.73;;
9958;SDS011;5019;48.012;7.812;2022-09-21T10:49:55;1.43;;;1.33;;
9958;SDS011;5019;48.012;7.812;2022-09-21T10:52:31;0.83;;;0.83;;
9958;SDS011;5019;48.012;7.812;2022-09-21T10:54:58;0.90;;;0.90;;
9958;SDS011;5019;48.012;7.812;2022-09-21T10:57:24;1.27;;;1.00;;
9958;SDS011;5019;48.012;7.812;2022-09-21T10:59:51;2.60;;;1.23;;
9958;SDS011;5019;48.012;7.812;2022-09-21T11:05:18;0.70;;;0.70;;
9958;SDS011;5019;48.012;7.812;2022-09-21T11:18:15;1.30;;;0.93;;
9958;SDS011;5019;48.012;7.812;2022-09-21T11:30:47;1.10;;;1.00;;
9958;SDS011;5019;48.012;7.812;2022-09-21T11:41:12;0.70;;;0.70;;
9958;SDS011;5019;48.012;7.812;2022-09-21T11:48:54;0.80;;;0.80;;
9958;SDS011;5019;48.012;7.812;2022-09-21T11:56:46;0.83;;;0.83;;
9958;SDS011;5019;48.012;7.812;2022-09-21T12:01:50;1.53;;;1.07;;
9958;SDS011;5019;48.012;7.812;2022-09-21T12:17:35;0.70;;;0.70;;
9958;SDS011;5019;48.012;7.812;2022-09-21T12:20:07;0.63;;;0.63;;
9958;SDS011;5019;48.012;7.812;2022-09-21T12:22:40;0.80;;;0.80;;
9958;SDS011;5019;48.012;7.812;2022-09-21T12:27:38;1.30;;;0.70;;
9958;SDS011;5019;48.012;7.812;2022-09-21T12:30:13;0.80;;;0.70;;
9958;SDS011;5019;48.012;7.812;2022-09-21T12:35:14;0.70;;;0.60;;
9958;SDS011;5019;48.012;7.812;2022-09-21T12:37:45;0.63;;;0.63;;
9958;SDS011;5019;48.012;7.812;2022-09-21T12:40:17;0.60;;;0.60;;
9958;SDS011;5019;48.012;7.812;2022-09-21T12:45:28;0.60;;;0.60;;
9958;SDS011;5019;48.012;7.812;2022-09-21T12:50:26;0.50;;;0.50;;
9958;SDS011;5019;48.012;7.812;2022-09-21T12:52:55;0.63;;;0.63;;
9958;SDS011;5019;48.012;7.812;2022-09-21T12:55:39;0.50;;;0.50;;
9958;SDS011;5019;48.012;7.812;2022-09-21T12:58:45;1.07;;;0.80;;
9958;SDS011;5019;48.012;7.812;2022-09-21T13:06:27;0.63;;;0.60;;
9958;SDS011;5019;48.012;7.812;2022-09-21T13:08:56;0.83;;;0.83;;
9958;SDS011;5019;48.012;7.812;2022-09-21T13:11:26;0.70;;;0.70;;
9958;SDS011;5019;48.012;7.812;2022-09-21T13:13:55;0.80;;;0.70;;
9958;SDS011;5019;48.012;7.812;2022-09-21T13:16:36;0.50;;;0.50;;
9958;SDS011;5019;48.012;7.812;2022-09-21T13:19:04;0.70;;;0.60;;
9958;SDS011;5019;48.012;7.812;2022-09-21T13:21:31;0.70;;;0.70;;
9958;SDS011;5019;48.012;7.812;2022-09-21T13:26:38;0.60;;;0.60;;
9958;SDS011;5019;48.012;7.812;2022-09-21T13:44:55;0.50;;;0.50;;
9958;SDS011;5019;48.012;7.812;2022-09-21T13:47:29;0.70;;;0.70;;
9958;SDS011;5019;48.012;7.812;2022-09-21T13:49:56;0.60;;;0.60;;
9958;SDS011;5019;48.012;7.812;2022-09-21T13:52:30;0.70;;;0.60;;
9958;SDS011;5019;48.012;7.812;2022-09-21T13:54:59;5.13;;;1.10;;
9958;SDS011;5019;48.012;7.812;2022-09-21T14:02:36;0.70;;;0.70;;
9958;SDS011;5019;48.012;7.812;2022-09-21T14:05:07;0.60;;;0.60;;
9958;SDS011;5019;48.012;7.812;2022-09-21T14:07:41;0.50;;;0.50;;
9958;SDS011;5019;48.012;7.812;2022-09-21T14:10:07;0.50;;;0.50;;
9958;SDS011;5019;48.012;7.812;2022-09-21T14:12:38;0.90;;;0.60;;
9958;SDS011;5019;48.012;7.812;2022-09-21T14:17:37;0.70;;;0.70;;
9958;SDS011;5019;48.012;7.812;2022-09-21T14:20:05;0.70;;;0.70;;
9958;SDS011;5019;48.012;7.812;2022-09-21T14:22:48;0.60;;;0.60;;
9958;SDS011;5019;48.012;7.812;2022-09-21T14:25:46;0.77;;;0.70;;
9958;SDS011;5019;48.012;7.812;2022-09-21T14:28:13;0.60;;;0.60;;
9958;SDS011;5019;48.012;7.812;2022-09-21T14:30:47;0.60;;;0.60;;
9958;SDS011;5019;48.012;7.812;2022-09-21T14:33:18;0.80;;;0.70;;
9958;SDS011;5019;48.012;7.812;2022-09-21T14:35:45;0.70;;;0.70;;
9958;SDS011;5019;48.012;7.812;2022-09-21T14:38:20;0.60;;;0.60;;
9958;SDS011;5019;48.012;7.812;2022-09-21T14:40:48;0.60;;;0.60;;
9958;SDS011;5019;48.012;7.812;2022-09-21T14:43:17;1.20;;;1.00;;
9958;SDS011;5019;48.012;7.812;2022-09-21T14:50:48;0.60;;;0.60;;
9958;SDS011;5019;48.012;7.812;2022-09-21T14:53:21;1.90;;;0.60;;
9958;SDS011;5019;48.012;7.812;2022-09-21T14:59:16;0.60;;;0.60;;
9958;SDS011;5019;48.012;7.812;2022-09-21T15:01:33;0.50;;;0.50;;
9958;SDS011;5019;48.012;7.812;2022-09-21T15:18:21;0.53;;;0.53;;
9958;SDS011;5019;48.012;7.812;2022-09-21T15:20:56;0.50;;;0.50;;
9958;SDS011;5019;48.012;7.812;2022-09-21T15:23:27;0.50;;;0.50;;
9958;SDS011;5019;48.012;7.812;2022-09-21T15:25:55;0.60;;;0.60;;
9958;SDS011;5019;48.012;7.812;2022-09-21T15:28:23;1.80;;;0.73;;
9958;SDS011;5019;48.012;7.812;2022-09-21T15:30:50;0.87;;;0.87;;
9958;SDS011;5019;48.012;7.812;2022-09-21T15:33:17;0.97;;;0.80;;
9958;SDS011;5019;48.012;7.812;2022-09-21T15:35:44;0.70;;;0.70;;
9958;SDS011;5019;48.012;7.812;2022-09-21T15:38:30;1.30;;;0.90;;
9958;SDS011;5019;48.012;7.812;2022-09-21T15:40:57;1.07;;;0.80;;
9958;SDS011;5019;48.012;7.812;2022-09-21T15:43:23;1.03;;;0.70;;
9958;SDS011;5019;48.012;7.812;2022-09-21T15:45:56;0.70;;;0.60;;
9958;SDS011;5019;48.012;7.812;2022-09-21T15:48:24;1.20;;;0.90;;
9958;SDS011;5019;48.012;7.812;2022-09-21T15:51:36;0.55;;;0.55;;
9958;SDS011;5019;48.012;7.812;2022-09-21T15:53:47;1.10;;;0.70;;
9958;SDS011;5019;48.012;7.812;2022-09-21T15:56:18;1.53;;;0.67;;
9958;SDS011;5019;48.012;7.812;2022-09-21T15:58:46;0.67;;;0.50;;
9958;SDS011;5019;48.012;7.812;2022-09-21T16:01:14;0.70;;;0.70;;
9958;SDS011;5019;48.012;7.812;2022-09-21T16:03:40;0.70;;;0.70;;
9958;SDS011;5019;48.012;7.812;2022-09-21T16:40:48;0.97;;;0.63;;
9958;SDS011;5019;48.012;7.812;2022-09-21T16:43:18;1.17;;;0.70;;
9958;SDS011;5019;48.012;7.812;2022-09-21T16:45:47;1.67;;;0.90;;
9958;SDS011;5019;48.012;7.812;2022-09-21T16:48:13;3.10;;;1.87;;
9958;SDS011;5019;48.012;7.812;2022-09-21T16:50:39;7.10;;;2.10;;
9958;SDS011;5019;48.012;7.812;2022-09-21T16:53:07;2.07;;;1.23;;
9958;SDS011;5019;48.012;7.812;2022-09-21T16:55:33;3.40;;;0.97;;
9958;SDS011;5019;48.012;7.812;2022-09-21T16:57:59;0.90;;;0.63;;
9958;SDS011;5019;48.012;7.812;2022-09-21T17:00:27;0.60;;;0.60;;
9958;SDS011;5019;48.012;7.812;2022-09-21T17:02:55;0.50;;;0.50;;
9958;SDS011;5019;48.012;7.812;2022-09-21T17:05:21;0.40;;;0.40;;
9958;SDS011;5019;48.012;7.812;2022-09-21T17:07:51;0.63;;;0.60;;
9958;SDS011;5019;48.012;7.812;2022-09-21T17:10:18;1.47;;;0.80;;
9958;SDS011;5019;48.012;7.812;2022-09-21T17:12:45;0.60;;;0.60;;
9958;SDS011;5019;48.012;7.812;2022-09-21T17:15:11;1.47;;;0.70;;
9958;SDS011;5019;48.012;7.812;2022-09-21T17:17:38;4.33;;;1.30;;
9958;SDS011;5019;48.012;7.812;2022-09-21T17:20:12;3.30;;;1.30;;
9958;SDS011;5019;48.012;7.812;2022-09-21T17:22:39;3.33;;;1.57;;
9958;SDS011;5019;48.012;7.812;2022-09-21T17:25:05;2.80;;;1.20;;
9958;SDS011;5019;48.012;7.812;2022-09-21T17:27:31;1.27;;;0.70;;
9958;SDS011;5019;48.012;7.812;2022-09-21T17:29:57;1.17;;;0.70;;
9958;SDS011;5019;48.012;7.812;2022-09-21T17:32:27;1.13;;;0.80;;
9958;SDS011;5019;48.012;7.812;2022-09-21T17:34:57;3.63;;;1.20;;
9958;SDS011;5019;48.012;7.812;2022-09-21T17:37:25;2.50;;;0.90;;
9958;SDS011;5019;48.012;7.812;2022-09-21T17:39:51;0.50;;;0.50;;
9958;SDS011;5019;48.012;7.812;2022-09-21T17:42:18;0.90;;;0.63;;
9958;SDS011;5019;48.012;7.812;2022-09-21T17:47:44;0.50;;;0.50;;
9958;SDS011;5019;48.012;7.812;2022-09-21T17:50:20;0.80;;;0.80;;
9958;SDS011;5019;48.012;7.812;2022-09-21T17:52:47;0.60;;;0.60;;
9958;SDS011;5019;48.012;7.812;2022-09-21T17:55:32;0.70;;;0.70;;
9958;SDS011;5019;48.012;7.812;2022-09-21T18:03:20;0.70;;;0.70;;
9958;SDS011;5019;48.012;7.812;2022-09-21T18:05:47;0.70;;;0.70;;
9958;SDS011;5019;48.012;7.812;2022-09-21T18:08:15;3.03;;;0.83;;
9958;SDS011;5019;48.012;7.812;2022-09-21T18:10:41;0.97;;;0.87;;
9958;SDS011;5019;48.012;7.812;2022-09-21T18:13:14;2.00;;;1.00;;
9958;SDS011;5019;48.012;7.812;2022-09-21T18:15:55;1.77;;;1.00;;
9958;SDS011;5019;48.012;7.812;2022-09-21T18:18:41;1.00;;;0.90;;
9958;SDS011;5019;48.012;7.812;2022-09-21T18:21:21;1.00;;;0.97;;
9958;SDS011;5019;48.012;7.812;2022-09-21T18:26:29;1.40;;;0.93;;
9958;SDS011;5019;48.012;7.812;2022-09-21T18:28:57;1.37;;;1.23;;
9958;SDS011;5019;48.012;7.812;2022-09-21T18:44:36;1.27;;;1.00;;
9958;SDS011;5019;48.012;7.812;2022-09-21T18:54:29;1.00;;;1.00;;
9958;SDS011;5019;48.012;7.812;2022-09-21T18:56:55;0.80;;;0.80;;
9958;SDS011;5019;48.012;7.812;2022-09-21T18:59:21;1.50;;;1.17;;
9958;SDS011;5019;48.012;7.812;2022-09-21T19:01:47;2.00;;;1.20;;
9958;SDS011;5019;48.012;7.812;2022-09-21T19:04:14;1.27;;;1.17;;
9958;SDS011;5019;48.012;7.812;2022-09-21T19:26:50;1.60;;;1.50;;
9958;SDS011;5019;48.012;7.812;2022-09-21T19:31:51;2.47;;;1.60;;
9958;SDS011;5019;48.012;7.812;2022-09-21T19:34:18;1.57;;;1.47;;
9958;SDS011;5019;48.012;7.812;2022-09-21T19:36:44;2.53;;;1.87;;
9958;SDS011;5019;48.012;7.812;2022-09-21T19:39:14;1.63;;;1.50;;
9958;SDS011;5019;48.012;7.812;2022-09-21T19:41:42;2.10;;;1.90;;
9958;SDS011;5019;48.012;7.812;2022-09-21T19:47:01;3.57;;;2.20;;
9958;SDS011;5019;48.012;7.812;2022-09-21T19:49:40;3.53;;;1.53;;
9958;SDS011;5019;48.012;7.812;2022-09-21T19:52:07;2.20;;;1.60;;
9958;SDS011;5019;48.012;7.812;2022-09-21T19:54:36;2.10;;;1.90;;
9958;SDS011;5019;48.012;7.812;2022-09-21T19:57:21;1.37;;;1.27;;
9958;SDS011;5019;48.012;7.812;2022-09-21T20:00:07;5.43;;;2.10;;
9958;SDS011;5019;48.012;7.812;2022-09-21T20:05:29;1.73;;;1.63;;
9958;SDS011;5019;48.012;7.812;2022-09-21T20:20:38;2.73;;;1.70;;
9958;SDS011;5019;48.012;7.812;2022-09-21T20:23:06;3.30;;;1.73;;
9958;SDS011;5019;48.012;7.812;2022-09-21T20:25:37;1.80;;;1.43;;
9958;SDS011;5019;48.012;7.812;2022-09-21T20:28:06;2.00;;;1.10;;
9958;SDS011;5019;48.012;7.812;2022-09-21T20:30:32;2.80;;;1.53;;
9958;SDS011;5019;48.012;7.812;2022-09-21T20:33:01;1.20;;;1.10;;
9958;SDS011;5019;48.012;7.812;2022-09-21T20:35:30;1.20;;;1.10;;